Time;durP1;ratioP1;P1;durP2;ratioP2;P2;SDS_P1;SDS_P2;PMS_P1;PMS_P2;Temp;Humidity;BMP_temperature;BMP_pressure;BME280_temperature;BME280_humidity;BME280_pressure;Samples;Min_cycle;Max_cycle;Signal;HPM_P1;HPM_P2
2023/04/23 00:00:11;;;;;;;15.93;11.15;;;;;;;;;;2071442;28;20041;-89
2023/04/23 00:01:12;;;;;;;14.55;10.88;;;;;;;;;;2071074;28;20287;-89
2023/04/23 00:02:15;;;;;;;14.77;11.10;;;;;;;;;;2071206;28;20105;-89
2023/04/23 00:03:18;;;;;;;15.52;11.18;;;;;;;;;;2054207;28;20526;-88
2023/04/23 00:04:20;;;;;;;14.45;11.23;;;;;;;;;;2054864;28;20110;-89
2023/04/23 00:05:22;;;;;;;17.75;11.20;;;;;;;;;;2071174;28;20361;-89
2023/04/23 00:06:25;;;;;;;15.00;10.55;;;;;;;;;;2071329;28;20022;-89
2023/04/23 00:07:27;;;;;;;16.50;10.57;;;;;;;;;;2071227;28;20104;-90
2023/04/23 00:08:28;;;;;;;15.88;10.88;;;;;;;;;;2062491;28;20505;-90
2023/04/23 00:09:35;;;;;;;14.75;10.35;;;;;;;;;;2063632;28;20026;-90
2023/04/23 00:10:36;;;;;;;15.43;10.50;;;;;;;;;;2071163;28;20028;-90
2023/04/23 00:11:37;;;;;;;14.93;10.55;;;;;;;;;;2071417;28;20062;-89
2023/04/23 00:12:38;;;;;;;14.05;10.70;;;;;;;;;;2073053;28;20142;-90
2023/04/23 00:13:38;;;;;;;15.27;9.98;;;;;;;;;;2081744;28;20029;-89
2023/04/23 00:14:39;;;;;;;16.25;10.88;;;;;;;;;;2081360;28;20041;-89
2023/04/23 00:15:40;;;;;;;17.30;10.52;;;;;;;;;;2071535;28;20026;-89
2023/04/23 00:16:40;;;;;;;15.13;10.10;;;;;;;;;;2068607;28;20161;-90
2023/04/23 00:17:41;;;;;;;14.18;10.80;;;;;;;;;;2080217;28;20102;-89
2023/04/23 00:18:41;;;;;;;14.95;10.77;;;;;;;;;;2065154;28;20027;-89
2023/04/23 00:19:42;;;;;;;13.93;10.25;;;;;;;;;;2062334;28;20026;-89
2023/04/23 00:20:43;;;;;;;13.23;10.30;;;;;;;;;;2062467;28;20037;-89
2023/04/23 00:21:44;;;;;;;15.40;10.45;;;;;;;;;;2071315;28;20058;-89
2023/04/23 00:22:44;;;;;;;15.93;10.07;;;;;;;;;;2062129;28;20448;-89
2023/04/23 00:23:45;;;;;;;14.65;10.32;;;;;;;;;;2064707;28;20026;-89
2023/04/23 00:24:45;;;;;;;15.05;9.95;;;;;;;;;;2065871;28;20058;-89
2023/04/23 00:25:46;;;;;;;13.27;9.95;;;;;;;;;;2065735;28;20068;-88
2023/04/23 00:26:46;;;;;;;13.85;10.13;;;;;;;;;;2062581;28;20042;-89
2023/04/23 00:27:50;;;;;;;14.18;10.85;;;;;;;;;;2071289;28;20029;-88
2023/04/23 00:28:50;;;;;;;15.07;10.18;;;;;;;;;;2070773;28;20045;-89
2023/04/23 00:29:51;;;;;;;13.25;10.55;;;;;;;;;;2065659;28;20033;-89
2023/04/23 00:30:51;;;;;;;13.55;9.90;;;;;;;;;;2073312;28;20018;-89
2023/04/23 00:31:52;;;;;;;13.15;9.73;;;;;;;;;;2081537;28;20152;-89
2023/04/23 00:32:52;;;;;;;13.00;9.77;;;;;;;;;;2081453;28;20010;-89
2023/04/23 00:33:52;;;;;;;;;;;;;;;;;;2071967;28;20030;-88
2023/04/23 00:34:54;;;;;;;13.67;9.87;;;;;;;;;;2070386;28;19909;-88
2023/04/23 00:35:54;;;;;;;15.02;10.10;;;;;;;;;;2066073;28;20026;-88
2023/04/23 00:36:55;;;;;;;13.48;9.32;;;;;;;;;;2068608;28;20026;-88
2023/04/23 00:37:55;;;;;;;13.80;10.60;;;;;;;;;;2074785;28;20539;-89
2023/04/23 00:38:56;;;;;;;13.35;9.88;;;;;;;;;;1717520;28;10001461;-88
2023/04/23 00:39:56;;;;;;;12.80;10.23;;;;;;;;;;2062096;28;20056;-90
2023/04/23 00:40:57;;;;;;;;;;;;;;;;;;2062729;28;20034;-89
2023/04/23 00:41:59;;;;;;;13.90;10.60;;;;;;;;;;2071085;28;20067;-90
2023/04/23 00:43:00;;;;;;;14.60;10.27;;;;;;;;;;2071365;28;20021;-91
2023/04/23 00:44:02;;;;;;;12.95;10.20;;;;;;;;;;2062092;28;20045;-90
2023/04/23 00:45:07;;;;;;;13.85;9.80;;;;;;;;;;2061927;28;20041;-90
2023/04/23 00:46:08;;;;;;;12.52;9.82;;;;;;;;;;2065514;28;20061;-89
2023/04/23 00:47:10;;;;;;;12.02;9.68;;;;;;;;;;2071041;28;20056;-89
2023/04/23 00:48:11;;;;;;;14.13;10.45;;;;;;;;;;2071131;28;20025;-90
2023/04/23 00:49:13;;;;;;;12.80;9.57;;;;;;;;;;2070892;28;20034;-89
2023/04/23 00:50:13;;;;;;;13.05;10.63;;;;;;;;;;2062016;28;20502;-91
2023/04/23 00:51:16;;;;;;;14.43;10.23;;;;;;;;;;2062004;28;20125;-90
2023/04/23 00:52:16;;;;;;;13.07;9.23;;;;;;;;;;2061936;28;20053;-89
2023/04/23 00:53:17;;;;;;;19.55;9.95;;;;;;;;;;2070617;28;20056;-89
2023/04/23 00:54:17;;;;;;;12.10;9.48;;;;;;;;;;2061757;28;20030;-89
2023/04/23 00:55:19;;;;;;;15.02;10.50;;;;;;;;;;2062015;28;20030;-88
2023/04/23 00:56:21;;;;;;;20.55;10.10;;;;;;;;;;2061979;28;20022;-89
2023/04/23 00:57:25;;;;;;;14.60;9.75;;;;;;;;;;2066415;28;20014;-86
2023/04/23 00:58:26;;;;;;;14.70;10.23;;;;;;;;;;2056156;28;20087;-89
2023/04/23 00:59:27;;;;;;;12.52;9.48;;;;;;;;;;2061922;28;20083;-89
2023/04/23 01:00:28;;;;;;;15.23;10.32;;;;;;;;;;2061916;28;20018;-89
2023/04/23 01:01:29;;;;;;;;;;;;;;;;;;2062951;28;20034;-89
2023/04/23 01:02:30;;;;;;;16.27;11.27;;;;;;;;;;2061723;28;19913;-89
2023/04/23 01:03:31;;;;;;;16.45;10.52;;;;;;;;;;2061563;28;20124;-89
2023/04/23 01:04:32;;;;;;;15.23;11.35;;;;;;;;;;2061745;28;20038;-89
2023/04/23 01:05:33;;;;;;;16.90;10.25;;;;;;;;;;2062341;28;20040;-89
2023/04/23 01:06:34;;;;;;;14.82;10.15;;;;;;;;;;2062213;28;20048;-89
2023/04/23 01:07:36;;;;;;;14.20;10.57;;;;;;;;;;2053944;28;20054;-88
2023/04/23 01:08:38;;;;;;;13.88;10.80;;;;;;;;;;2062108;28;20437;-89
2023/04/23 01:09:39;;;;;;;16.65;9.68;;;;;;;;;;1715806;28;10264200;-89
2023/04/23 01:10:41;;;;;;;16.67;9.75;;;;;;;;;;2070603;28;20124;-89
2023/04/23 01:11:43;;;;;;;12.77;10.10;;;;;;;;;;2070660;28;20108;-89
2023/04/23 01:12:43;;;;;;;13.13;9.15;;;;;;;;;;2070613;28;20393;-89
2023/04/23 01:13:44;;;;;;;11.80;9.00;;;;;;;;;;2070918;28;20053;-88
2023/04/23 01:14:44;;;;;;;13.60;8.80;;;;;;;;;;2070492;28;20434;-89
2023/04/23 01:15:45;;;;;;;11.90;9.10;;;;;;;;;;2070636;28;20088;-89
2023/04/23 01:16:45;;;;;;;14.57;8.30;;;;;;;;;;2061575;28;20085;-89
2023/04/23 01:17:46;;;;;;;15.60;9.05;;;;;;;;;;2061964;28;20030;-89
2023/04/23 01:18:47;;;;;;;;;;;;;;;;;;2071203;28;20025;-89
2023/04/23 01:19:47;;;;;;;14.60;8.07;;;;;;;;;;2070803;28;19913;-88
2023/04/23 01:20:48;;;;;;;15.82;8.90;;;;;;;;;;2071015;28;20103;-88
2023/04/23 01:21:50;;;;;;;14.30;8.57;;;;;;;;;;2065848;28;20026;-88
2023/04/23 01:22:50;;;;;;;15.82;8.98;;;;;;;;;;2067495;28;20105;-87
2023/04/23 01:23:52;;;;;;;12.13;8.68;;;;;;;;;;1716875;28;10256451;-89
2023/04/23 01:24:53;;;;;;;13.52;8.20;;;;;;;;;;2070737;28;20049;-88
2023/04/23 01:25:54;;;;;;;12.43;8.38;;;;;;;;;;2070578;28;20073;-89
2023/04/23 01:26:54;;;;;;;15.30;8.95;;;;;;;;;;2070831;28;20057;-88
2023/04/23 01:27:56;;;;;;;15.05;8.52;;;;;;;;;;2061996;28;20441;-89
2023/04/23 01:28:57;;;;;;;11.18;7.93;;;;;;;;;;2062532;28;20026;-89
2023/04/23 01:29:58;;;;;;;11.00;8.50;;;;;;;;;;2062349;28;20050;-88
2023/04/23 01:30:59;;;;;;;18.10;8.82;;;;;;;;;;2061962;28;20268;-88
2023/04/23 01:32:00;;;;;;;13.48;7.55;;;;;;;;;;2070931;28;20714;-89
2023/04/23 01:33:03;;;;;;;11.45;8.15;;;;;;;;;;2061713;28;20037;-89
2023/04/23 01:34:04;;;;;;;13.13;8.70;;;;;;;;;;2061901;28;20065;-89
2023/04/23 01:35:07;;;;;;;10.77;7.60;;;;;;;;;;2061968;28;20061;-89
2023/04/23 01:36:08;;;;;;;11.57;8.45;;;;;;;;;;2062394;28;20088;-90
2023/04/23 01:37:10;;;;;;;15.02;8.18;;;;;;;;;;2064467;28;20240;-89
2023/04/23 01:38:12;;;;;;;11.98;8.07;;;;;;;;;;2064494;28;20092;-89
2023/04/23 01:39:14;;;;;;;13.88;7.93;;;;;;;;;;2064160;28;20097;-89
2023/04/23 01:40:15;;;;;;;12.50;8.38;;;;;;;;;;2056750;28;20023;-90
2023/04/23 01:41:16;;;;;;;12.93;8.07;;;;;;;;;;2064509;28;20074;-89
2023/04/23 01:42:16;;;;;;;13.77;7.57;;;;;;;;;;2073774;28;20465;-88
2023/04/23 01:43:17;;;;;;;10.60;7.43;;;;;;;;;;2073787;28;20112;-87
2023/04/23 01:44:18;;;;;;;13.55;7.75;;;;;;;;;;2073749;28;20137;-88
2023/04/23 01:45:18;;;;;;;11.35;7.80;;;;;;;;;;2073820;28;20021;-89
2023/04/23 01:46:20;;;;;;;14.00;8.20;;;;;;;;;;2073987;28;20061;-89
2023/04/23 01:47:21;;;;;;;12.43;7.90;;;;;;;;;;2073966;28;20140;-89
2023/04/23 01:48:23;;;;;;;12.65;7.78;;;;;;;;;;2073720;28;20022;-90
2023/04/23 01:49:24;;;;;;;11.68;7.97;;;;;;;;;;2065083;28;20167;-89
2023/04/23 01:50:25;;;;;;;12.77;7.68;;;;;;;;;;2065086;28;20121;-89
2023/04/23 01:51:26;;;;;;;11.00;7.18;;;;;;;;;;2065028;28;20018;-89
2023/04/23 01:52:26;;;;;;;12.45;8.15;;;;;;;;;;2056855;28;20023;-89
2023/04/23 01:53:27;;;;;;;9.70;7.45;;;;;;;;;;2065038;28;20136;-90
2023/04/23 01:54:27;;;;;;;12.10;7.65;;;;;;;;;;2065196;28;20217;-89
2023/04/23 01:55:27;;;;;;;;;;;;;;;;;;2074409;28;20469;-88
2023/04/23 01:56:29;;;;;;;13.23;7.85;;;;;;;;;;1709534;28;10310515;-88
2023/04/23 01:57:29;;;;;;;10.02;7.55;;;;;;;;;;2065055;28;20383;-88
2023/04/23 01:58:30;;;;;;;11.68;7.80;;;;;;;;;;2073911;28;20101;-89
2023/04/23 01:59:30;;;;;;;11.00;8.02;;;;;;;;;;2064867;28;20492;-89
2023/04/23 02:00:31;;;;;;;13.52;7.75;;;;;;;;;;2065187;28;20038;-89
2023/04/23 02:01:45;;;;;;;12.23;7.88;;;;;;;;;;2064973;28;20042;-89
2023/04/23 02:02:46;;;;;;;11.77;8.20;;;;;;;;;;2065006;28;20648;-88
2023/04/23 02:03:49;;;;;;;15.23;7.65;;;;;;;;;;2065061;28;20058;-89
2023/04/23 02:04:52;;;;;;;13.00;6.97;;;;;;;;;;2073798;28;20057;-90
2023/04/23 02:05:53;;;;;;;14.38;7.43;;;;;;;;;;2073578;28;20029;-89
2023/04/23 02:06:54;;;;;;;13.27;7.15;;;;;;;;;;2073843;28;20032;-90
2023/04/23 02:07:55;;;;;;;12.50;7.45;;;;;;;;;;2064832;28;20508;-90
2023/04/23 02:08:57;;;;;;;10.75;7.03;;;;;;;;;;2064376;28;20022;-90
2023/04/23 02:09:58;;;;;;;12.40;7.68;;;;;;;;;;2064562;28;20394;-90
2023/04/23 02:10:58;;;;;;;10.88;7.35;;;;;;;;;;2065100;28;20030;-90
2023/04/23 02:11:58;;;;;;;;;;;;;;;;;;2074197;28;20025;-90
2023/04/23 02:13:00;;;;;;;14.73;7.30;;;;;;;;;;2065557;28;19910;-89
2023/04/23 02:14:01;;;;;;;14.10;7.00;;;;;;;;;;1710204;28;10415568;-89
2023/04/23 02:15:02;;;;;;;14.60;7.75;;;;;;;;;;2070901;28;20022;-89
2023/04/23 02:16:03;;;;;;;12.90;7.57;;;;;;;;;;2065134;28;20034;-90
2023/04/23 02:17:04;;;;;;;15.18;7.47;;;;;;;;;;2075880;28;20084;-88
2023/04/23 02:18:05;;;;;;;14.63;7.40;;;;;;;;;;2067905;28;20026;-89
2023/04/23 02:19:05;;;;;;;12.05;7.75;;;;;;;;;;2067638;28;20026;-89
2023/04/23 02:20:08;;;;;;;14.05;8.10;;;;;;;;;;2074199;28;20029;-90
2023/04/23 02:21:10;;;;;;;13.23;7.28;;;;;;;;;;2073325;28;20029;-90
2023/04/23 02:22:10;;;;;;;11.00;7.22;;;;;;;;;;2073522;28;20041;-90
2023/04/23 02:23:11;;;;;;;10.40;7.65;;;;;;;;;;2064883;28;20026;-89
2023/04/23 02:24:11;;;;;;;;;;;;;;;;;;2064953;28;20443;-89
2023/04/23 02:25:14;;;;;;;10.93;6.63;;;;;;;;;;2064471;28;19909;-90
2023/04/23 02:26:15;;;;;;;10.60;6.82;;;;;;;;;;2064528;28;20042;-88
2023/04/23 02:27:15;;;;;;;10.98;6.75;;;;;;;;;;2064780;28;20176;-89
2023/04/23 02:28:15;;;;;;;8.13;7.13;;;;;;;;;;2073427;28;20053;-88
2023/04/23 02:29:16;;;;;;;11.50;7.57;;;;;;;;;;2073443;28;20026;-89
2023/04/23 02:30:16;;;;;;;;;;;;;;;;;;2073865;28;20053;-89
2023/04/23 02:31:17;;;;;;;10.00;7.37;;;;;;;;;;2064490;28;20443;-89
2023/04/23 02:32:18;;;;;;;17.27;7.95;;;;;;;;;;2064691;28;20142;-89
2023/04/23 02:33:18;;;;;;;;;;;;;;;;;;2064976;28;20501;-89
2023/04/23 02:34:19;;;;;;;13.20;7.73;;;;;;;;;;2064727;28;19945;-89
2023/04/23 02:35:20;;;;;;;11.25;7.30;;;;;;;;;;2064973;28;20018;-89
2023/04/23 02:36:20;;;;;;;13.48;7.25;;;;;;;;;;2064595;28;20401;-89
2023/04/23 02:37:21;;;;;;;9.95;7.40;;;;;;;;;;2064526;28;20454;-88
2023/04/23 02:38:21;;;;;;;11.02;6.80;;;;;;;;;;2064671;28;20053;-89
2023/04/23 02:39:21;;;;;;;;;;;;;;;;;;2073978;28;20021;-88
2023/04/23 02:40:23;;;;;;;13.57;7.37;;;;;;;;;;2073463;28;19905;-88
2023/04/23 02:41:23;;;;;;;18.80;7.93;;;;;;;;;;2073334;28;20099;-89
2023/04/23 02:42:25;;;;;;;11.00;7.30;;;;;;;;;;2073352;28;20014;-88
2023/04/23 02:43:25;;;;;;;15.93;7.32;;;;;;;;;;2065175;28;20055;-90
2023/04/23 02:44:25;;;;;;;12.50;7.60;;;;;;;;;;2061545;28;20091;-91
2023/04/23 02:45:26;;;;;;;;;;;;;;;;;;2067605;28;20053;-88
2023/04/23 02:46:26;;;;;;;12.00;6.73;;;;;;;;;;2075136;28;19928;-89
2023/04/23 02:47:27;;;;;;;12.15;6.78;;;;;;;;;;2070019;28;20026;-89
2023/04/23 02:48:28;;;;;;;10.55;6.47;;;;;;;;;;2061707;28;20074;-89
2023/04/23 02:49:29;;;;;;;11.48;6.72;;;;;;;;;;2061597;28;20027;-88
2023/04/23 02:50:29;;;;;;;14.10;6.47;;;;;;;;;;2061909;28;20522;-88
2023/04/23 02:51:30;;;;;;;11.02;6.85;;;;;;;;;;2054614;28;20035;-89
2023/04/23 02:52:31;;;;;;;13.10;7.22;;;;;;;;;;2063538;28;20378;-89
2023/04/23 02:53:32;;;;;;;12.90;6.78;;;;;;;;;;2063183;28;20034;-89
2023/04/23 02:54:32;;;;;;;12.50;6.75;;;;;;;;;;2063441;28;20050;-89
2023/04/23 02:55:33;;;;;;;8.57;6.78;;;;;;;;;;2063166;28;20474;-90
2023/04/23 02:56:33;;;;;;;;;;;;;;;;;;2055841;28;20027;-90
2023/04/23 02:57:34;;;;;;;15.67;7.33;;;;;;;;;;2063476;28;19992;-89
2023/04/23 02:58:35;;;;;;;12.40;7.90;;;;;;;;;;2063387;28;20436;-90
2023/04/23 02:59:36;;;;;;;14.30;7.05;;;;;;;;;;2063462;28;20459;-90
2023/04/23 03:00:36;;;;;;;10.27;6.95;;;;;;;;;;2066029;28;20022;-90
2023/04/23 03:01:36;;;;;;;;;;;;;;;;;;2066581;28;20088;-90
2023/04/23 03:02:37;;;;;;;11.77;7.07;;;;;;;;;;2082417;28;19912;-90
2023/04/23 03:03:38;;;;;;;;;;;;;;;;;;2083165;28;20188;-89
2023/04/23 03:04:44;;;;;;;15.27;6.65;;;;;;;;;;1892927;28;10064690;-89
2023/04/23 03:05:44;;;;;;;11.80;6.72;;;;;;;;;;2074371;28;20252;-89
2023/04/23 03:06:45;;;;;;;11.05;6.75;;;;;;;;;;2072313;28;20098;-88
2023/04/23 03:07:45;;;;;;;13.77;6.75;;;;;;;;;;2065726;28;20030;-91
2023/04/23 03:08:46;;;;;;;10.70;7.10;;;;;;;;;;2063507;28;20029;-91
2023/04/23 03:09:46;;;;;;;13.35;7.68;;;;;;;;;;2063474;28;20014;-89
2023/04/23 03:10:47;;;;;;;11.20;7.93;;;;;;;;;;2063249;28;20104;-91
2023/04/23 03:11:47;;;;;;;13.70;7.68;;;;;;;;;;2072369;28;20030;-89
2023/04/23 03:12:48;;;;;;;15.95;7.80;;;;;;;;;;2063188;28;20018;-90
2023/04/23 03:13:49;;;;;;;15.02;7.20;;;;;;;;;;2063351;28;20037;-89
2023/04/23 03:14:49;;;;;;;11.93;7.60;;;;;;;;;;2071892;28;20458;-89
2023/04/23 03:15:50;;;;;;;9.90;8.00;;;;;;;;;;2072212;28;20188;-89
2023/04/23 03:16:51;;;;;;;11.23;7.25;;;;;;;;;;2063278;28;20042;-90
2023/04/23 03:17:52;;;;;;;11.48;7.18;;;;;;;;;;2062818;28;20030;-90
2023/04/23 03:18:53;;;;;;;13.77;7.93;;;;;;;;;;2063406;28;20082;-90
2023/04/23 03:19:53;;;;;;;11.73;7.55;;;;;;;;;;2063281;28;20101;-89
2023/04/23 03:20:54;;;;;;;12.52;7.10;;;;;;;;;;2062865;28;20494;-89
2023/04/23 03:21:54;;;;;;;;;;;;;;;;;;2063709;28;20022;-89
2023/04/23 03:22:54;;;;;;;11.57;7.73;;;;;;;;;;2063230;28;20158;-89
2023/04/23 03:23:55;;;;;;;12.23;6.85;;;;;;;;;;2062948;28;20033;-89
2023/04/23 03:24:55;;;;;;;12.48;8.27;;;;;;;;;;2063261;28;20172;-89
2023/04/23 03:25:55;;;;;;;;;;;;;;;;;;2063664;28;20497;-89
2023/04/23 03:26:56;;;;;;;12.65;7.03;;;;;;;;;;2063139;28;19960;-89
2023/04/23 03:27:57;;;;;;;14.13;7.90;;;;;;;;;;2063066;28;20109;-89
2023/04/23 03:28:57;;;;;;;13.27;7.53;;;;;;;;;;2063012;28;20045;-89
2023/04/23 03:29:58;;;;;;;11.90;7.28;;;;;;;;;;2062946;28;20044;-88
2023/04/23 03:30:58;;;;;;;9.48;7.15;;;;;;;;;;2071810;28;20021;-89
2023/04/23 03:31:58;;;;;;;;;;;;;;;;;;2053243;28;20050;-88
2023/04/23 03:33:01;;;;;;;17.10;8.47;;;;;;;;;;2071237;28;19932;-89
2023/04/23 03:34:02;;;;;;;11.23;7.07;;;;;;;;;;2063761;28;20121;-87
2023/04/23 03:35:02;;;;;;;12.30;8.32;;;;;;;;;;2064296;28;20018;-90
2023/04/23 03:36:03;;;;;;;;;;;;;;;;;;2063337;28;20540;-88
2023/04/23 03:37:03;;;;;;;14.20;7.90;;;;;;;;;;2062840;28;20516;-90
2023/04/23 03:38:03;;;;;;;;;;;;;;;;;;2063183;28;20078;-89
2023/04/23 03:39:04;;;;;;;12.82;8.20;;;;;;;;;;2062654;28;19945;-88
2023/04/23 03:40:06;;;;;;;10.05;7.30;;;;;;;;;;2062656;28;20026;-89
2023/04/23 03:41:06;;;;;;;13.55;8.80;;;;;;;;;;2062915;28;20037;-89
2023/04/23 03:42:07;;;;;;;13.35;8.80;;;;;;;;;;2071135;28;20464;-90
2023/04/23 03:43:07;;;;;;;13.07;8.32;;;;;;;;;;2071824;28;20545;-90
2023/04/23 03:44:08;;;;;;;11.48;8.25;;;;;;;;;;2071705;28;20042;-90
2023/04/23 03:45:08;;;;;;;;;;;;;;;;;;2063289;28;20493;-91
2023/04/23 03:46:09;;;;;;;19.23;8.80;;;;;;;;;;2062808;28;19914;-91
2023/04/23 03:47:09;;;;;;;;;;;;;;;;;;1714391;28;10131119;-90
2023/04/23 03:48:10;;;;;;;12.05;8.48;;;;;;;;;;2062814;28;19955;-91
2023/04/23 03:49:10;;;;;;;15.77;8.93;;;;;;;;;;2054682;28;20035;-91
2023/04/23 03:50:13;;;;;;;;;;;;;;;;;;2063458;28;20045;-89
2023/04/23 03:51:14;;;;;;;14.02;8.57;;;;;;;;;;2063404;28;20229;-92
2023/04/23 03:52:15;;;;;;;11.38;8.25;;;;;;;;;;2063019;28;20180;-91
2023/04/23 03:53:16;;;;;;;12.55;7.68;;;;;;;;;;2063391;28;20022;-91
2023/04/23 03:54:18;;;;;;;14.90;8.43;;;;;;;;;;2063012;28;20018;-91
2023/04/23 03:55:19;;;;;;;12.38;7.65;;;;;;;;;;2063259;28;20014;-90
2023/04/23 03:56:20;;;;;;;13.95;8.48;;;;;;;;;;2062632;28;20061;-90
2023/04/23 03:57:20;;;;;;;14.30;8.10;;;;;;;;;;2067084;28;20054;-90
2023/04/23 03:58:21;;;;;;;11.80;8.70;;;;;;;;;;2068924;28;20049;-89
2023/04/23 03:59:21;;;;;;;10.68;8.27;;;;;;;;;;2075161;28;20028;-91
2023/04/23 04:00:22;;;;;;;14.93;9.05;;;;;;;;;;2062120;28;20068;-91
2023/04/23 04:01:22;;;;;;;;;;;;;;;;;;2063639;28;20026;-91
2023/04/23 04:02:22;;;;;;;12.70;8.80;;;;;;;;;;2062841;28;19964;-90
2023/04/23 04:03:23;;;;;;;13.00;7.88;;;;;;;;;;2062773;28;20026;-90
2023/04/23 04:04:23;;;;;;;14.95;9.10;;;;;;;;;;2064251;28;20144;-91
2023/04/23 04:05:24;;;;;;;;;;;;;;;;;;2072178;28;20025;-91
2023/04/23 04:06:25;;;;;;;11.07;7.90;;;;;;;;;;2063193;28;19910;-90
2023/04/23 04:07:26;;;;;;;13.73;7.80;;;;;;;;;;2064518;28;20029;-92
2023/04/23 04:08:26;;;;;;;14.18;8.00;;;;;;;;;;2064550;28;20359;-94
2023/04/23 04:09:27;;;;;;;15.73;8.30;;;;;;;;;;2058475;28;20034;-93
2023/04/23 04:10:28;;;;;;;14.25;8.38;;;;;;;;;;2069572;28;20065;-91
2023/04/23 04:11:28;;;;;;;11.63;8.38;;;;;;;;;;2069228;28;20023;-93
2023/04/23 04:12:28;;;;;;;;;;;;;;;;;;2061877;28;20156;-92
2023/04/23 04:13:32;;;;;;;12.77;7.47;;;;;;;;;;2057022;28;19917;-93
2023/04/23 04:14:32;;;;;;;10.98;8.50;;;;;;;;;;1702034;28;10298079;-88
2023/04/23 04:15:33;;;;;;;;;;;;;;;;;;2063398;28;20019;-89
2023/04/23 04:16:33;;;;;;;10.40;8.47;;;;;;;;;;2054955;28;20398;-88
2023/04/23 04:17:33;;;;;;;;;;;;;;;;;;2063067;28;20526;-89
2023/04/23 04:18:34;;;;;;;13.37;8.43;;;;;;;;;;2054800;28;19980;-88
2023/04/23 04:19:34;;;;;;;13.35;8.25;;;;;;;;;;2064661;28;20038;-88
2023/04/23 04:20:35;;;;;;;11.63;8.65;;;;;;;;;;2062762;28;20018;-88
2023/04/23 04:21:35;;;;;;;;;;;;;;;;;;2062880;28;20463;-87
2023/04/23 04:22:36;;;;;;;17.13;9.20;;;;;;;;;;2062726;28;19909;-90
2023/04/23 04:23:36;;;;;;;15.57;8.48;;;;;;;;;;2062694;28;20403;-89
2023/04/23 04:24:37;;;;;;;;;;;;;;;;;;2063524;28;20127;-89
2023/04/23 04:25:38;;;;;;;18.20;9.37;;;;;;;;;;2063015;28;19909;-89
2023/04/23 04:26:39;;;;;;;17.42;9.82;;;;;;;;;;2062787;28;20545;-89
2023/04/23 04:27:42;;;;;;;13.52;8.93;;;;;;;;;;2063176;28;20034;-89
2023/04/23 04:28:44;;;;;;;12.73;8.93;;;;;;;;;;2062729;28;20022;-89
2023/04/23 04:29:44;;;;;;;12.85;9.10;;;;;;;;;;2062533;28;20121;-89
2023/04/23 04:30:46;;;;;;;12.93;9.30;;;;;;;;;;2054612;28;20037;-89
2023/04/23 04:31:47;;;;;;;16.05;9.45;;;;;;;;;;2062641;28;20034;-89
2023/04/23 04:32:49;;;;;;;13.75;8.77;;;;;;;;;;2062650;28;20085;-89
2023/04/23 04:33:50;;;;;;;14.30;8.82;;;;;;;;;;2062731;28;20046;-89
2023/04/23 04:34:51;;;;;;;17.30;9.90;;;;;;;;;;2063060;28;20031;-91
2023/04/23 04:35:53;;;;;;;17.65;9.38;;;;;;;;;;2063062;28;20406;-92
2023/04/23 04:36:54;;;;;;;17.70;10.60;;;;;;;;;;2062964;28;20427;-90
2023/04/23 04:37:54;;;;;;;14.52;9.20;;;;;;;;;;2062679;28;20136;-91
2023/04/23 04:38:57;;;;;;;10.02;7.85;;;;;;;;;;2062858;28;20038;-91
2023/04/23 04:39:57;;;;;;;16.77;7.82;;;;;;;;;;2054842;28;20026;-91
2023/04/23 04:41:01;;;;;;;12.63;7.15;;;;;;;;;;2063124;28;20379;-90
2023/04/23 04:42:03;;;;;;;14.18;6.90;;;;;;;;;;2062662;28;20057;-89
2023/04/23 04:43:04;;;;;;;12.50;8.48;;;;;;;;;;2054779;28;20026;-90
2023/04/23 04:44:07;;;;;;;9.82;6.65;;;;;;;;;;2063006;28;20101;-92
2023/04/23 04:45:09;;;;;;;12.23;6.60;;;;;;;;;;2062245;28;20148;-89
2023/04/23 04:46:10;;;;;;;12.77;7.18;;;;;;;;;;2062758;28;20081;-90
2023/04/23 04:47:12;;;;;;;10.73;6.70;;;;;;;;;;2064007;28;20030;-90
2023/04/23 04:48:12;;;;;;;12.65;6.22;;;;;;;;;;2064531;28;20104;-90
2023/04/23 04:49:13;;;;;;;11.23;6.82;;;;;;;;;;2065283;28;20033;-91
2023/04/23 04:50:13;;;;;;;10.13;6.32;;;;;;;;;;2068804;28;20193;-90
2023/04/23 04:51:14;;;;;;;11.25;6.13;;;;;;;;;;2076891;28;20041;-90
2023/04/23 04:52:15;;;;;;;9.55;5.70;;;;;;;;;;2063243;28;20430;-91
2023/04/23 04:53:16;;;;;;;9.00;5.72;;;;;;;;;;2064087;28;20018;-90
2023/04/23 04:54:16;;;;;;;10.25;6.30;;;;;;;;;;2065260;28;20022;-90
2023/04/23 04:55:16;;;;;;;9.45;5.50;;;;;;;;;;2054855;28;20595;-90
2023/04/23 04:56:17;;;;;;;9.73;5.80;;;;;;;;;;2054916;28;20034;-91
2023/04/23 04:57:21;;;;;;;12.82;6.50;;;;;;;;;;2063125;28;20169;-91
2023/04/23 04:58:22;;;;;;;11.45;6.60;;;;;;;;;;2064083;28;20064;-94
2023/04/23 04:59:22;;;;;;;16.83;6.43;;;;;;;;;;2056162;28;20344;-93
2023/04/23 05:00:28;;;;;;;8.68;5.40;;;;;;;;;;2064302;28;20474;-93
2023/04/23 05:01:29;;;;;;;11.20;6.22;;;;;;;;;;2056842;28;20023;-92
2023/04/23 05:02:30;;;;;;;9.60;6.03;;;;;;;;;;2057108;28;20026;-92
2023/04/23 05:03:31;;;;;;;10.15;5.63;;;;;;;;;;2064110;28;20022;-92
2023/04/23 05:04:31;;;;;;;9.32;5.68;;;;;;;;;;2072475;28;20465;-93
2023/04/23 05:05:33;;;;;;;9.32;5.95;;;;;;;;;;2072736;28;20048;-92
2023/04/23 05:06:33;;;;;;;11.38;6.80;;;;;;;;;;2063945;28;20030;-91
2023/04/23 05:07:34;;;;;;;11.18;5.25;;;;;;;;;;2063785;28;20121;-91
2023/04/23 05:08:34;;;;;;;8.70;5.50;;;;;;;;;;2063907;28;20105;-92
2023/04/23 05:09:35;;;;;;;13.40;5.40;;;;;;;;;;2063849;28;20145;-93
2023/04/23 05:10:35;;;;;;;7.85;4.82;;;;;;;;;;2055671;28;20034;-94
2023/04/23 05:11:36;;;;;;;9.68;4.45;;;;;;;;;;2064792;28;20458;-91
2023/04/23 05:12:40;;;;;;;12.45;5.32;;;;;;;;;;2072398;28;20023;-93
2023/04/23 05:13:41;;;;;;;7.78;4.03;;;;;;;;;;2081498;28;20021;-91
2023/04/23 05:14:41;;;;;;;9.02;4.90;;;;;;;;;;2082885;28;20033;-92
2023/04/23 05:15:42;;;;;;;7.25;4.38;;;;;;;;;;2064128;28;20023;-91
2023/04/23 05:16:42;;;;;;;9.85;4.05;;;;;;;;;;2060387;28;20094;-92
2023/04/23 05:17:43;;;;;;;7.25;3.83;;;;;;;;;;2064744;28;20034;-90
2023/04/23 05:18:44;;;;;;;5.35;3.75;;;;;;;;;;2063448;28;20026;-92
2023/04/23 05:19:44;;;;;;;8.38;3.95;;;;;;;;;;2064056;28;20477;-91
2023/04/23 05:20:45;;;;;;;7.90;3.78;;;;;;;;;;2063395;28;20057;-90
2023/04/23 05:21:45;;;;;;;7.28;4.07;;;;;;;;;;2063284;28;20422;-92
2023/04/23 05:22:46;;;;;;;10.20;4.60;;;;;;;;;;2055189;28;20061;-92
2023/04/23 05:23:47;;;;;;;6.85;4.00;;;;;;;;;;2063421;28;20080;-91
2023/04/23 05:24:47;;;;;;;7.10;4.40;;;;;;;;;;2063301;28;20026;-90
2023/04/23 05:25:50;;;;;;;8.45;5.10;;;;;;;;;;2063185;28;20129;-92
2023/04/23 05:26:51;;;;;;;8.63;4.47;;;;;;;;;;2064057;28;20042;-93
2023/04/23 05:27:52;;;;;;;11.48;5.22;;;;;;;;;;2064265;28;20022;-93
2023/04/23 05:28:52;;;;;;;10.00;5.38;;;;;;;;;;2056410;28;20105;-93
2023/04/23 05:29:58;;;;;;;9.13;4.47;;;;;;;;;;2063887;28;20030;-92
2023/04/23 05:31:00;;;;;;;7.55;4.60;;;;;;;;;;2079360;28;20026;-92
2023/04/23 05:32:08;;;;;;;8.43;4.78;;;;;;;;;;2082894;28;20014;-93
2023/04/23 05:33:11;;;;;;;10.10;4.50;;;;;;;;;;2074048;28;20018;-92
2023/04/23 05:34:17;;;;;;;8.63;4.47;;;;;;;;;;2073811;28;20061;-91
2023/04/23 05:35:41;;;;;;;7.95;5.35;;;;;;;;;;1720880;28;10178041;-92
2023/04/23 05:36:41;;;;;;;11.32;4.55;;;;;;;;;;2060785;28;20183;-93
2023/04/23 05:37:41;;;;;;;6.20;3.95;;;;;;;;;;2064010;28;20105;-92
2023/04/23 05:38:42;;;;;;;4.82;4.13;;;;;;;;;;2063666;28;20069;-92
2023/04/23 05:39:42;;;;;;;11.55;4.30;;;;;;;;;;2063982;28;20054;-92
2023/04/23 05:40:43;;;;;;;6.65;4.00;;;;;;;;;;2063997;28;20072;-93
2023/04/23 05:41:43;;;;;;;7.70;3.78;;;;;;;;;;2068564;28;20109;-92
2023/04/23 05:42:44;;;;;;;5.13;3.60;;;;;;;;;;2070451;28;20098;-91
2023/04/23 05:43:44;;;;;;;11.98;4.75;;;;;;;;;;2066821;28;20032;-92
2023/04/23 05:44:45;;;;;;;4.60;3.70;;;;;;;;;;2063918;28;20030;-92
2023/04/23 05:45:45;;;;;;;5.32;4.13;;;;;;;;;;2064094;28;20023;-91
2023/04/23 05:46:46;;;;;;;5.20;3.50;;;;;;;;;;2064061;28;20376;-92
2023/04/23 05:47:46;;;;;;;6.88;4.25;;;;;;;;;;2063690;28;20105;-92
2023/04/23 05:48:47;;;;;;;7.32;5.10;;;;;;;;;;2072239;28;20037;-93
2023/04/23 05:49:48;;;;;;;7.55;3.95;;;;;;;;;;2072603;28;20045;-93
2023/04/23 05:50:48;;;;;;;7.47;3.80;;;;;;;;;;2063707;28;20026;-93
2023/04/23 05:51:50;;;;;;;6.03;4.15;;;;;;;;;;2063818;28;20482;-92
2023/04/23 05:52:50;;;;;;;7.40;4.07;;;;;;;;;;2063931;28;20237;-93
2023/04/23 05:53:51;;;;;;;4.88;3.15;;;;;;;;;;2064057;28;20030;-93
2023/04/23 05:54:51;;;;;;;8.27;3.70;;;;;;;;;;2073219;28;20026;-95
2023/04/23 05:55:52;;;;;;;7.78;4.32;;;;;;;;;;2072744;28;20472;-95
2023/04/23 05:56:52;;;;;;;6.45;3.30;;;;;;;;;;2064216;28;20029;-93
2023/04/23 05:57:53;;;;;;;5.60;2.78;;;;;;;;;;2064125;28;20050;-93
2023/04/23 05:58:54;;;;;;;7.50;3.03;;;;;;;;;;2064113;28;20037;-93
2023/04/23 05:59:57;;;;;;;7.63;3.50;;;;;;;;;;2058812;28;20023;-93
2023/04/23 06:00:57;;;;;;;6.97;3.33;;;;;;;;;;2068184;28;20069;-93
2023/04/23 06:02:06;;;;;;;4.28;3.50;;;;;;;;;;2068588;28;20023;-94
2023/04/23 06:03:29;;;;;;;5.00;3.55;;;;;;;;;;2069120;28;20094;-92
2023/04/23 06:04:30;;;;;;;6.30;3.40;;;;;;;;;;1714294;28;10207108;-92